createdAt,value
2023-04-10T00:01:36.333Z,12.60
2023-04-10T00:04:05.074Z,12.60
2023-04-10T00:06:33.904Z,12.60
2023-04-10T00:09:02.242Z,12.60
2023-04-10T00:11:31.968Z,12.60
2023-04-10T00:14:00.382Z,12.60
2023-04-10T00:16:28.788Z,12.60
2023-04-10T00:18:57.142Z,12.60
2023-04-10T00:21:26.421Z,12.60
2023-04-10T00:23:54.886Z,12.60
2023-04-10T00:26:23.983Z,12.60
2023-04-10T00:28:53.653Z,12.60
2023-04-10T00:31:22.014Z,12.50
2023-04-10T00:33:50.338Z,12.50
2023-04-10T00:36:19.867Z,12.50
2023-04-10T00:38:48.800Z,12.50
2023-04-10T00:41:17.491Z,12.50
2023-04-10T00:43:46.579Z,12.50
2023-04-10T00:46:16.662Z,12.50
2023-04-10T00:48:45.045Z,12.40
2023-04-10T00:51:13.657Z,12.40
2023-04-10T00:53:42.158Z,12.40
2023-04-10T00:56:11.017Z,12.40
2023-04-10T00:58:39.438Z,12.30
2023-04-10T01:01:08.728Z,12.30
2023-04-10T01:03:39.437Z,12.30
2023-04-10T01:06:20.079Z,12.30
2023-04-10T01:08:56.458Z,12.30
2023-04-10T01:11:32.335Z,12.20
2023-04-10T01:14:08.674Z,12.20
2023-04-10T01:16:45.022Z,12.20
2023-04-10T01:19:27.534Z,12.20
2023-04-10T01:21:57.179Z,12.20
2023-04-10T01:24:42.286Z,12.20
2023-04-10T01:27:18.105Z,12.10
2023-04-10T01:29:53.460Z,12.10
2023-04-10T01:32:23.985Z,12.10
2023-04-10T01:34:55.658Z,12.10
2023-04-10T01:37:26.263Z,12.10
2023-04-10T01:40:02.219Z,12.00
2023-04-10T01:42:33.727Z,12.00
2023-04-10T01:45:05.207Z,12.00
2023-04-10T01:47:34.325Z,12.00
2023-04-10T01:50:04.681Z,12.00
2023-04-10T01:52:34.057Z,11.90
2023-04-10T01:55:03.615Z,11.90
2023-04-10T01:57:32.955Z,11.90
2023-04-10T02:00:02.700Z,11.90
2023-04-10T02:02:33.158Z,11.90
2023-04-10T02:05:02.093Z,11.90
2023-04-10T02:07:40.453Z,11.80
2023-04-10T02:10:14.951Z,11.80
2023-04-10T02:12:48.128Z,11.80
2023-04-10T02:15:21.033Z,11.80
2023-04-10T02:17:50.081Z,11.80
2023-04-10T02:20:19.522Z,11.80
2023-04-10T02:22:48.568Z,11.80
2023-04-10T02:25:17.612Z,11.80
2023-04-10T02:27:46.093Z,11.80
2023-04-10T02:30:14.413Z,11.70
2023-04-10T02:32:44.290Z,11.70
2023-04-10T02:35:12.708Z,11.70
2023-04-10T02:37:42.644Z,11.70
2023-04-10T02:40:11.862Z,11.60
2023-04-10T02:42:40.225Z,11.60
2023-04-10T02:45:09.861Z,11.60
2023-04-10T02:47:38.249Z,11.60
2023-04-10T02:50:08.641Z,11.60
2023-04-10T02:52:36.923Z,11.50
2023-04-10T02:55:05.800Z,11.50
2023-04-10T02:57:34.118Z,11.50
2023-04-10T03:00:02.784Z,11.50
2023-04-10T03:02:32.120Z,11.50
2023-04-10T03:05:01.846Z,11.40
2023-04-10T03:07:32.308Z,11.40
2023-04-10T03:10:00.595Z,11.40
2023-04-10T03:12:29.152Z,11.40
2023-04-10T03:14:57.396Z,11.40
2023-04-10T03:17:25.789Z,11.40
2023-04-10T03:19:54.080Z,11.40
2023-04-10T03:22:22.318Z,11.40
2023-04-10T03:24:52.778Z,11.30
2023-04-10T03:27:21.892Z,11.30
2023-04-10T03:29:50.162Z,11.30
2023-04-10T03:32:18.481Z,11.30
2023-04-10T03:34:46.761Z,11.30
2023-04-10T03:37:15.058Z,11.30
2023-04-10T03:39:43.306Z,11.30
2023-04-10T03:42:13.033Z,11.30
2023-04-10T03:44:41.599Z,11.20
2023-04-10T03:47:09.996Z,11.30
2023-04-10T03:49:38.327Z,11.20
2023-04-10T03:52:06.701Z,11.20
2023-04-10T03:54:34.993Z,11.20
2023-04-10T03:57:03.278Z,11.20
2023-04-10T03:59:38.509Z,11.20
2023-04-10T04:02:08.476Z,11.20
2023-04-10T04:04:36.941Z,11.20
2023-04-10T04:07:05.331Z,11.20
2023-04-10T04:09:33.707Z,11.10
2023-04-10T04:12:01.961Z,11.10
2023-04-10T04:14:30.323Z,11.10
2023-04-10T04:17:00.019Z,11.20
2023-04-10T04:19:28.357Z,11.10
2023-04-10T04:21:56.592Z,11.10
2023-04-10T04:24:25.036Z,11.10
2023-04-10T04:26:54.174Z,11.10
2023-04-10T04:29:22.449Z,11.10
2023-04-10T04:31:52.400Z,11.10
2023-04-10T04:34:22.103Z,11.10
2023-04-10T04:36:50.629Z,11.20
2023-04-10T04:39:18.967Z,11.20
2023-04-10T04:41:47.270Z,11.20
2023-04-10T04:44:15.575Z,11.20
2023-04-10T04:46:44.692Z,11.20
2023-04-10T04:49:13.122Z,11.20
2023-04-10T04:51:42.794Z,11.30
2023-04-10T04:54:11.108Z,11.30
2023-04-10T04:56:39.395Z,11.30
2023-04-10T04:59:07.692Z,11.30
2023-04-10T05:01:36.221Z,11.40
2023-04-10T05:04:04.727Z,11.40
2023-04-10T05:06:33.072Z,11.40
2023-04-10T05:09:02.740Z,11.40
2023-04-10T05:11:31.169Z,11.50
2023-04-10T05:13:59.547Z,11.50
2023-04-10T05:16:27.822Z,11.50
2023-04-10T05:18:56.753Z,11.50
2023-04-10T05:21:25.914Z,11.50
2023-04-10T05:23:54.310Z,11.60
2023-04-10T05:26:24.350Z,11.60
2023-04-10T05:28:53.061Z,11.70
2023-04-10T05:31:21.745Z,11.70
2023-04-10T05:33:50.061Z,11.80
2023-04-10T05:36:19.082Z,11.80
2023-04-10T05:38:47.381Z,11.90
2023-04-10T05:41:15.788Z,11.90
2023-04-10T05:43:45.500Z,12.00
2023-04-10T05:46:13.827Z,12.10
2023-04-10T05:48:42.254Z,12.20
2023-04-10T05:51:10.600Z,12.20
2023-04-10T05:53:38.922Z,12.30
2023-04-10T05:56:08.112Z,12.40
2023-04-10T05:58:36.406Z,12.50
2023-04-10T06:01:06.944Z,12.60
2023-04-10T06:03:35.487Z,12.70
2023-04-10T06:06:04.183Z,12.80
2023-04-10T06:08:32.521Z,13.00
2023-04-10T06:11:00.819Z,13.10
2023-04-10T06:13:29.159Z,13.20
2023-04-10T06:15:57.564Z,13.30
2023-04-10T06:18:27.276Z,13.30
2023-04-10T06:20:56.813Z,13.40
2023-04-10T06:23:25.133Z,13.50
2023-04-10T06:25:53.500Z,13.60
2023-04-10T06:28:21.843Z,13.60
2023-04-10T06:30:50.451Z,13.70
2023-04-10T06:33:18.883Z,13.90
2023-04-10T06:35:48.741Z,13.90
2023-04-10T06:38:16.969Z,14.00
2023-04-10T06:40:45.308Z,14.00
2023-04-10T06:43:13.640Z,14.10
2023-04-10T06:45:42.043Z,14.20
2023-04-10T06:48:10.428Z,14.40
2023-04-10T06:51:05.369Z,14.50
2023-04-10T06:53:33.617Z,14.60
2023-04-10T06:56:03.679Z,14.70
2023-04-10T06:58:32.341Z,14.80
2023-04-10T07:01:04.626Z,14.90
2023-04-10T07:03:33.983Z,14.90
2023-04-10T07:06:03.824Z,15.10
2023-04-10T07:08:32.116Z,15.20
2023-04-10T07:11:00.434Z,15.30
2023-04-10T07:13:28.749Z,15.40
2023-04-10T07:15:57.179Z,15.40
2023-04-10T07:18:25.541Z,15.50
2023-04-10T07:20:54.185Z,15.60
2023-04-10T07:23:23.948Z,15.60
2023-04-10T07:25:55.094Z,15.70
2023-04-10T07:28:23.364Z,15.80
2023-04-10T07:30:51.850Z,15.80
2023-04-10T07:33:20.461Z,15.90
2023-04-10T07:35:48.897Z,15.90
2023-04-10T07:38:17.942Z,16.00
2023-04-10T07:40:47.812Z,16.10
2023-04-10T07:43:16.175Z,16.10
2023-04-10T07:45:44.490Z,16.20
2023-04-10T07:48:12.830Z,16.20
2023-04-10T07:50:41.171Z,16.30
2023-04-10T07:53:09.538Z,16.30
2023-04-10T07:55:41.088Z,16.40
2023-04-10T07:58:10.842Z,16.40
2023-04-10T08:00:39.349Z,16.50
2023-04-10T08:03:07.930Z,16.60
2023-04-10T08:05:45.664Z,16.60
2023-04-10T08:08:14.091Z,16.60
2023-04-10T08:10:45.254Z,16.60
2023-04-10T08:13:14.991Z,16.70
2023-04-10T08:15:43.346Z,16.80
2023-04-10T08:18:11.585Z,16.80
2023-04-10T08:20:40.124Z,16.80
2023-04-10T08:25:56.618Z,16.90
2023-04-10T08:28:26.343Z,17.00
2023-04-10T08:30:55.406Z,17.10
2023-04-10T08:33:23.716Z,17.10
2023-04-10T08:35:52.030Z,17.20
2023-04-10T08:38:21.521Z,17.30
2023-04-10T08:40:49.790Z,17.40
2023-04-10T08:43:18.190Z,17.50
2023-04-10T08:45:48.794Z,17.50
2023-04-10T08:48:19.877Z,17.60
2023-04-10T08:50:49.026Z,17.70
2023-04-10T08:53:19.176Z,17.80
2023-04-10T08:55:48.237Z,17.90
2023-04-10T08:58:17.377Z,17.90
2023-04-10T09:00:47.233Z,18.00
2023-04-10T09:03:16.998Z,18.10
2023-04-10T09:05:45.517Z,18.20
2023-04-10T09:08:16.663Z,18.20
2023-04-10T09:10:45.028Z,18.30
2023-04-10T09:13:13.356Z,18.30
2023-04-10T09:16:02.942Z,18.40
2023-04-10T09:18:45.548Z,18.40
2023-04-10T09:21:15.820Z,18.50
2023-04-10T09:23:45.238Z,18.50
2023-04-10T09:26:30.336Z,18.50
2023-04-10T09:29:00.426Z,18.60
2023-04-10T09:31:32.687Z,18.70
2023-04-10T09:34:13.329Z,18.70
2023-04-10T09:36:45.239Z,18.80
2023-04-10T09:39:14.209Z,18.90
2023-04-10T09:41:52.943Z,18.90
2023-04-10T09:44:31.091Z,18.90
2023-04-10T09:47:01.228Z,18.90
2023-04-10T09:49:29.680Z,18.90
2023-04-10T09:51:58.068Z,19.00
2023-04-10T09:54:38.323Z,19.10
2023-04-10T09:57:08.423Z,19.10
2023-04-10T09:59:42.611Z,19.10
2023-04-10T10:02:14.612Z,19.30
2023-04-10T10:04:45.912Z,19.30
2023-04-10T10:07:16.223Z,19.40
2023-04-10T10:09:45.472Z,19.50
2023-04-10T10:12:16.897Z,19.50
2023-04-10T10:14:52.187Z,19.50
2023-04-10T10:17:25.517Z,19.50
2023-04-10T10:19:59.964Z,19.50
2023-04-10T10:22:30.469Z,19.50
2023-04-10T10:25:00.806Z,19.60
2023-04-10T10:27:32.054Z,19.60
2023-04-10T10:30:08.536Z,19.70
2023-04-10T10:32:47.941Z,19.70
2023-04-10T10:35:16.820Z,19.80
2023-04-10T10:37:46.346Z,19.80
2023-04-10T10:40:21.633Z,19.80
2023-04-10T10:42:59.075Z,19.70
2023-04-10T10:45:34.311Z,19.70
2023-04-10T10:48:04.120Z,19.60
2023-04-10T10:51:01.143Z,19.70
2023-04-10T10:53:37.664Z,19.80
2023-04-10T10:56:41.622Z,19.90
2023-04-10T10:59:11.659Z,19.80
2023-04-10T11:01:54.303Z,19.90
2023-04-10T11:04:45.876Z,19.90
2023-04-10T11:07:14.906Z,20.10
2023-04-10T11:09:51.092Z,20.10
2023-04-10T11:12:23.133Z,20.20
2023-04-10T11:15:01.854Z,20.30
2023-04-10T11:17:52.195Z,20.40
2023-04-10T11:20:27.237Z,20.50
2023-04-10T11:23:14.145Z,20.50
2023-04-10T11:25:52.916Z,20.60
2023-04-10T11:28:39.948Z,20.60
2023-04-10T11:31:26.273Z,20.70
2023-04-10T11:34:04.254Z,20.70
2023-04-10T11:36:34.969Z,20.70
2023-04-10T11:39:05.995Z,20.60
2023-04-10T11:41:36.839Z,20.80
2023-04-10T11:44:07.083Z,20.80
2023-04-10T11:46:38.223Z,20.90
2023-04-10T11:49:07.982Z,20.90
2023-04-10T11:51:38.338Z,20.90
2023-04-10T11:54:08.619Z,21.00
2023-04-10T11:56:37.961Z,21.10
2023-04-10T11:59:11.370Z,21.10
2023-04-10T12:01:42.103Z,21.10
2023-04-10T12:04:18.107Z,21.20
2023-04-10T12:06:52.800Z,21.20
2023-04-10T12:09:22.402Z,21.20
2023-04-10T12:11:54.087Z,21.30
2023-04-10T12:14:22.904Z,21.20
2023-04-10T12:16:51.544Z,21.30
2023-04-10T12:19:20.821Z,21.30
2023-04-10T12:21:51.241Z,21.20
2023-04-10T12:24:44.456Z,21.30
2023-04-10T12:27:18.756Z,21.30
2023-04-10T12:29:47.666Z,21.30
2023-04-10T12:32:16.311Z,21.30
2023-04-10T12:34:51.882Z,21.40
2023-04-10T12:37:21.826Z,21.30
2023-04-10T12:39:51.572Z,21.30
2023-04-10T12:42:22.519Z,21.40
2023-04-10T12:44:55.763Z,21.40
2023-04-10T12:47:25.213Z,21.40
2023-04-10T12:50:10.800Z,21.30
2023-04-10T12:52:42.509Z,21.20
2023-04-10T12:55:12.983Z,21.30
2023-04-10T12:57:42.297Z,21.30
2023-04-10T13:00:12.671Z,21.20
2023-04-10T13:02:42.110Z,21.10
2023-04-10T13:05:11.542Z,21.00
2023-04-10T13:07:42.267Z,20.90
2023-04-10T13:10:18.489Z,20.80
2023-04-10T13:12:48.742Z,20.80
2023-04-10T13:15:17.808Z,20.80
2023-04-10T13:17:46.123Z,20.90
2023-04-10T13:20:21.584Z,20.90
2023-04-10T13:22:51.282Z,20.90
2023-04-10T13:25:20.422Z,20.80
2023-04-10T13:27:48.714Z,20.90
2023-04-10T13:30:16.944Z,20.90
2023-04-10T13:32:45.292Z,20.90
2023-04-10T13:35:13.591Z,20.90
2023-04-10T13:37:41.960Z,20.90
2023-04-10T13:40:12.479Z,20.90
2023-04-10T13:42:42.421Z,20.90
2023-04-10T13:45:11.610Z,20.80
2023-04-10T13:47:40.187Z,20.70
2023-04-10T13:50:09.330Z,20.70
2023-04-10T13:52:37.598Z,20.60
2023-04-10T13:55:06.720Z,20.60
2023-04-10T13:57:36.425Z,20.50
2023-04-10T14:00:04.997Z,20.50
2023-04-10T14:02:34.107Z,20.50
2023-04-10T14:05:02.541Z,20.50
2023-04-10T14:07:30.965Z,20.80
2023-04-10T14:09:59.229Z,20.90
2023-04-10T14:12:27.510Z,21.00
2023-04-10T14:14:57.226Z,21.00
2023-04-10T14:17:25.581Z,21.00
2023-04-10T14:19:54.150Z,21.10
2023-04-10T14:22:22.610Z,21.00
2023-04-10T14:24:52.576Z,21.00
2023-04-10T14:27:24.775Z,21.20
2023-04-10T14:29:54.973Z,21.40
2023-04-10T14:32:25.138Z,21.30
2023-04-10T14:34:53.564Z,21.10
2023-04-10T14:37:22.521Z,21.00
2023-04-10T14:39:50.820Z,20.90
2023-04-10T14:42:19.122Z,20.90
2023-04-10T14:44:47.447Z,20.80
2023-04-10T14:47:15.989Z,20.70
2023-04-10T14:49:45.738Z,20.60
2023-04-10T14:52:14.077Z,20.50
2023-04-10T14:54:42.492Z,20.40
2023-04-10T14:58:30.392Z,20.40
2023-04-10T15:00:58.782Z,20.30
2023-04-10T15:03:27.496Z,20.20
2023-04-10T15:06:01.723Z,20.20
2023-04-10T15:08:30.038Z,20.10
2023-04-10T15:10:58.323Z,20.10
2023-04-10T15:13:34.739Z,20.10
2023-04-10T15:16:03.022Z,20.00
2023-04-10T15:18:31.283Z,19.90
2023-04-10T15:20:59.583Z,19.90
2023-04-10T15:23:29.324Z,19.70
2023-04-10T15:25:57.671Z,19.70
2023-04-10T15:28:28.149Z,19.60
2023-04-10T15:30:57.752Z,19.50
2023-04-10T15:33:26.267Z,19.50
2023-04-10T15:35:54.595Z,19.40
2023-04-10T15:38:23.024Z,19.40
2023-04-10T15:40:52.804Z,19.30
2023-04-10T15:43:21.117Z,19.20
2023-04-10T15:45:49.486Z,19.20
2023-04-10T15:48:17.862Z,19.10
2023-04-10T15:50:46.181Z,19.00
2023-04-10T15:53:14.503Z,19.00
2023-04-10T15:55:42.840Z,18.90
2023-04-10T15:58:12.518Z,18.80
2023-04-10T16:00:40.826Z,18.80
2023-04-10T16:03:09.348Z,18.70
2023-04-10T16:05:37.730Z,18.70
2023-04-10T16:08:06.223Z,18.60
2023-04-10T16:10:35.733Z,18.50
2023-04-10T16:13:06.829Z,18.40
2023-04-10T16:15:37.633Z,18.40
2023-04-10T16:18:07.689Z,18.40
2023-04-10T16:20:36.188Z,18.30
2023-04-10T16:23:04.454Z,18.20
2023-04-10T16:25:32.898Z,18.10
2023-04-10T16:28:02.172Z,18.10
2023-04-10T16:30:30.457Z,18.00
2023-04-10T16:33:00.192Z,18.00
2023-04-10T16:35:29.042Z,17.90
2023-04-10T16:37:57.356Z,17.90
2023-04-10T16:40:27.779Z,17.80
2023-04-10T16:42:56.063Z,17.80
2023-04-10T16:45:24.374Z,17.70
2023-04-10T16:47:52.724Z,17.60
2023-04-10T16:50:22.595Z,17.60
2023-04-10T16:52:51.323Z,17.50
2023-04-10T16:55:19.876Z,17.40
2023-04-10T16:57:48.189Z,17.40
2023-04-10T17:00:17.004Z,17.40
2023-04-10T17:02:45.341Z,17.30
2023-04-10T17:05:13.803Z,17.30
2023-04-10T17:07:45.000Z,17.30
2023-04-10T17:10:13.649Z,17.30
2023-04-10T17:12:42.519Z,17.20
2023-04-10T17:15:11.600Z,17.20
2023-04-10T17:17:40.066Z,17.20
2023-04-10T17:20:09.927Z,17.20
2023-04-10T17:22:39.293Z,17.20
2023-04-10T17:25:09.708Z,17.10
2023-04-10T17:27:46.918Z,17.10
2023-04-10T17:30:25.054Z,17.00
2023-04-10T17:32:54.152Z,17.00
2023-04-10T17:35:22.557Z,17.00
2023-04-10T17:37:50.826Z,16.90
2023-04-10T17:40:20.978Z,16.90
2023-04-10T17:42:49.230Z,16.90
2023-04-10T17:45:17.508Z,16.80
2023-04-10T17:47:46.531Z,16.80
2023-04-10T17:50:15.016Z,16.80
2023-04-10T17:52:44.539Z,16.70
2023-04-10T17:55:15.022Z,16.70
2023-04-10T17:57:44.735Z,16.70
2023-04-10T18:00:15.721Z,16.70
2023-04-10T18:02:47.265Z,16.60
2023-04-10T18:05:15.709Z,16.60
2023-04-10T18:07:44.120Z,16.60
2023-04-10T18:10:12.899Z,16.50
2023-04-10T18:12:42.070Z,16.50
2023-04-10T18:15:14.319Z,16.40
2023-04-10T18:17:42.762Z,16.40
2023-04-10T18:20:12.136Z,16.40
2023-04-10T18:22:40.628Z,16.40
2023-04-10T18:25:09.960Z,16.40
2023-04-10T18:27:38.207Z,16.40
2023-04-10T18:30:07.775Z,16.30
2023-04-10T18:32:37.447Z,16.30
2023-04-10T18:35:06.666Z,16.30
2023-04-10T18:37:35.207Z,16.20
2023-04-10T18:40:13.479Z,16.20
2023-04-10T18:42:44.380Z,16.10
2023-04-10T18:45:14.112Z,16.10
2023-04-10T18:47:45.679Z,16.00
2023-04-10T18:50:14.105Z,16.00
2023-04-10T18:52:42.413Z,16.00
2023-04-10T18:55:11.127Z,16.00
2023-04-10T18:57:39.420Z,15.90
2023-04-10T19:00:09.674Z,15.90
2023-04-10T19:02:38.037Z,15.90
2023-04-10T19:05:09.443Z,15.80
2023-04-10T19:07:37.803Z,15.80
2023-04-10T19:10:06.776Z,15.80
2023-04-10T19:12:35.896Z,15.80
2023-04-10T19:15:05.861Z,15.70
2023-04-10T19:17:34.277Z,15.80
2023-04-10T19:20:02.667Z,15.80
2023-04-10T19:22:32.940Z,15.70
2023-04-10T19:25:01.307Z,15.70
2023-04-10T19:27:29.648Z,15.70
2023-04-10T19:29:57.965Z,15.70
2023-04-10T19:32:26.344Z,15.70
2023-04-10T19:34:54.780Z,15.60
2023-04-10T19:37:23.048Z,15.60
2023-04-10T19:39:52.657Z,15.60
2023-04-10T19:42:20.961Z,15.60
2023-04-10T19:44:49.293Z,15.60
2023-04-10T19:47:18.094Z,15.60
2023-04-10T19:49:46.468Z,15.60
2023-04-10T19:52:14.826Z,15.50
2023-04-10T19:54:43.113Z,15.50
2023-04-10T19:57:12.809Z,15.50
2023-04-10T19:59:41.181Z,15.50
2023-04-10T20:02:10.454Z,15.50
2023-04-10T20:04:38.977Z,15.50
2023-04-10T20:07:07.376Z,15.50
2023-04-10T20:09:35.821Z,15.50
2023-04-10T20:12:04.128Z,15.50
2023-04-10T20:14:33.903Z,15.50
2023-04-10T20:17:04.164Z,15.40
2023-04-10T20:19:32.540Z,15.40
2023-04-10T20:22:02.314Z,15.40
2023-04-10T20:24:30.924Z,15.40
2023-04-10T20:26:59.193Z,15.40
2023-04-10T20:29:28.075Z,15.40
2023-04-10T20:31:57.886Z,15.40
2023-04-10T20:34:26.366Z,15.40
2023-04-10T20:36:54.716Z,15.40
2023-04-10T20:39:24.650Z,15.40
2023-04-10T20:41:52.978Z,15.30
2023-04-10T20:44:21.330Z,15.30
2023-04-10T20:46:50.451Z,15.30
2023-04-10T20:49:20.216Z,15.30
2023-04-10T20:51:48.775Z,15.30
2023-04-10T20:54:19.027Z,15.20
2023-04-10T20:56:47.401Z,15.30
2023-04-10T20:59:15.741Z,15.30
2023-04-10T21:01:44.113Z,15.20
2023-04-10T21:04:12.506Z,15.20
2023-04-10T21:06:42.232Z,15.30
2023-04-10T21:09:10.524Z,15.30
2023-04-10T21:11:38.798Z,15.20
2023-04-10T21:14:07.082Z,15.20
2023-04-10T21:16:40.519Z,15.20
2023-04-10T21:19:08.926Z,15.20
2023-04-10T21:21:37.132Z,15.20
2023-04-10T21:24:09.810Z,15.20
2023-04-10T21:26:38.116Z,15.20
2023-04-10T21:29:06.415Z,15.20
2023-04-10T21:31:34.781Z,15.10
2023-04-10T21:34:03.388Z,15.20
2023-04-10T21:36:32.602Z,15.20
2023-04-10T21:39:00.940Z,15.10
2023-04-10T21:41:30.618Z,15.10
2023-04-10T21:44:00.434Z,15.10
2023-04-10T21:46:28.864Z,15.10
2023-04-10T21:48:57.322Z,15.10
2023-04-10T21:51:27.001Z,15.10
2023-04-10T21:53:55.608Z,15.10
2023-04-10T21:56:23.973Z,15.10
2023-04-10T21:58:54.125Z,15.00
2023-04-10T22:01:22.726Z,15.00
2023-04-10T22:03:52.011Z,15.00
2023-04-10T22:06:20.441Z,15.00
2023-04-10T22:08:48.716Z,15.00
2023-04-10T22:11:17.128Z,15.00
2023-04-10T22:13:45.406Z,14.90
2023-04-10T22:16:15.204Z,15.00
2023-04-10T22:18:43.535Z,15.00
2023-04-10T22:21:13.378Z,14.90
2023-04-10T22:23:41.637Z,14.90
2023-04-10T22:26:09.891Z,14.90
2023-04-10T22:28:38.154Z,14.90
2023-04-10T22:31:06.680Z,14.90
2023-04-10T22:33:37.573Z,14.80
2023-04-10T22:36:06.530Z,14.80
2023-04-10T22:38:34.830Z,14.80
2023-04-10T22:41:03.110Z,14.80
2023-04-10T22:43:31.521Z,14.80
2023-04-10T22:45:59.794Z,14.80
2023-04-10T22:48:28.130Z,14.80
2023-04-10T22:50:57.840Z,14.80
2023-04-10T22:53:26.167Z,14.80
2023-04-10T22:55:54.435Z,14.80
2023-04-10T22:58:22.842Z,14.80
2023-04-10T23:00:51.173Z,14.80
2023-04-10T23:03:19.529Z,14.80
2023-04-10T23:05:48.093Z,14.80
2023-04-10T23:08:17.896Z,14.80
2023-04-10T23:10:46.104Z,14.70
2023-04-10T23:13:14.410Z,14.70
2023-04-10T23:15:49.160Z,14.70
2023-04-10T23:18:17.698Z,14.70
2023-04-10T23:20:46.072Z,14.70
2023-04-10T23:23:14.449Z,14.70
2023-04-10T23:25:44.456Z,14.70
2023-04-10T23:28:12.730Z,14.70
2023-04-10T23:30:42.585Z,14.70
2023-04-10T23:33:10.979Z,14.70
2023-04-10T23:35:39.265Z,14.70
2023-04-10T23:38:07.620Z,14.70
2023-04-10T23:40:36.068Z,14.70
2023-04-10T23:43:06.461Z,14.60
2023-04-10T23:45:34.831Z,14.60
2023-04-10T23:48:03.233Z,14.60
2023-04-10T23:50:31.557Z,14.60
2023-04-10T23:53:00.771Z,14.60
2023-04-10T23:55:29.196Z,14.60
2023-04-10T23:57:57.513Z,14.60
